Time;durP1;ratioP1;P1;durP2;ratioP2;P2;SDS_P1;SDS_P2;PMS_P1;PMS_P2;Temp;Humidity;BMP_temperature;BMP_pressure;BME280_temperature;BME280_humidity;BME280_pressure;Samples;Min_cycle;Max_cycle;Signal;HPM_P1;HPM_P2
2022/07/27 00:00:04;;;;;;;27.80;12.98;;;;;;;;;;5031393;28;20071;-79
2022/07/27 00:02:30;;;;;;;17.08;10.20;;;;;;;;;;5031260;28;20021;-76
2022/07/27 00:04:56;;;;;;;18.50;10.57;;;;;;;;;;5031352;28;20045;-77
2022/07/27 00:07:22;;;;;;;12.07;8.85;;;;;;;;;;5032797;28;20021;-77
2022/07/27 00:09:48;;;;;;;11.60;7.88;;;;;;;;;;5032296;28;20120;-77
2022/07/27 00:12:15;;;;;;;17.55;8.20;;;;;;;;;;5027701;28;20228;-76
2022/07/27 00:14:41;;;;;;;17.25;7.82;;;;;;;;;;5022261;28;20116;-78
2022/07/27 00:17:07;;;;;;;11.75;7.55;;;;;;;;;;5032419;28;20725;-78
2022/07/27 00:19:33;;;;;;;11.52;8.07;;;;;;;;;;5022274;28;20026;-78
2022/07/27 00:21:59;;;;;;;15.57;8.32;;;;;;;;;;5013567;28;20021;-78
2022/07/27 00:24:25;;;;;;;10.70;8.80;;;;;;;;;;5031282;28;20040;-78
2022/07/27 00:26:51;;;;;;;14.65;9.10;;;;;;;;;;5031981;28;20097;-78
2022/07/27 00:29:17;;;;;;;15.77;9.35;;;;;;;;;;5031836;28;20040;-78
2022/07/27 00:31:44;;;;;;;16.67;9.07;;;;;;;;;;5029298;28;20020;-76
2022/07/27 00:34:10;;;;;;;20.10;9.23;;;;;;;;;;5032344;28;20017;-79
2022/07/27 00:36:36;;;;;;;12.43;8.05;;;;;;;;;;5031833;28;20079;-78
2022/07/27 00:39:02;;;;;;;15.77;10.30;;;;;;;;;;5029384;28;20029;-78
2022/07/27 00:41:28;;;;;;;12.27;10.15;;;;;;;;;;5030444;28;20052;-79
2022/07/27 00:43:58;;;;;;;11.25;8.70;;;;;;;;;;5031906;28;20017;-77
2022/07/27 00:46:25;;;;;;;14.05;10.55;;;;;;;;;;5030374;28;20078;-76
2022/07/27 00:48:52;;;;;;;15.90;8.35;;;;;;;;;;5030719;28;20029;-77
2022/07/27 00:51:18;;;;;;;17.15;8.82;;;;;;;;;;5032268;28;20469;-77
2022/07/27 00:53:45;;;;;;;13.18;8.63;;;;;;;;;;5034519;28;20477;-78
2022/07/27 00:56:11;;;;;;;14.02;9.82;;;;;;;;;;5030725;28;20412;-80
2022/07/27 00:58:38;;;;;;;12.80;9.18;;;;;;;;;;5032000;28;20112;-79
2022/07/27 01:01:05;;;;;;;12.38;9.38;;;;;;;;;;5030594;28;20080;-78
2022/07/27 01:03:31;;;;;;;16.17;9.15;;;;;;;;;;5031387;28;20017;-80
2022/07/27 01:05:58;;;;;;;12.32;7.70;;;;;;;;;;5032178;28;20022;-78
2022/07/27 01:08:24;;;;;;;13.82;8.95;;;;;;;;;;5030188;28;20041;-78
2022/07/27 01:10:51;;;;;;;10.75;8.23;;;;;;;;;;5031792;28;20060;-77
2022/07/27 01:13:18;;;;;;;14.02;11.00;;;;;;;;;;5031686;28;20077;-78
2022/07/27 01:15:44;;;;;;;14.57;9.32;;;;;;;;;;5030378;28;20311;-79
2022/07/27 01:18:11;;;;;;;12.90;8.30;;;;;;;;;;5030153;28;20041;-80
2022/07/27 01:20:37;;;;;;;15.48;9.00;;;;;;;;;;5030074;28;20032;-78
2022/07/27 01:23:03;;;;;;;13.95;9.20;;;;;;;;;;5031394;28;20013;-78
2022/07/27 01:25:29;;;;;;;19.48;8.93;;;;;;;;;;5030120;28;20160;-76
2022/07/27 01:27:55;;;;;;;10.43;8.35;;;;;;;;;;5030147;28;20032;-78
2022/07/27 01:30:29;;;;;;;10.57;8.48;;;;;;;;;;5031609;28;20022;-77
2022/07/27 01:33:02;;;;;;;16.10;10.13;;;;;;;;;;5030156;28;20025;-76
2022/07/27 01:35:28;;;;;;;;;;;;;;;;;;5031935;28;20025;-78
2022/07/27 01:37:54;;;;;;;13.48;9.50;;;;;;;;;;5030059;28;19920;-76
2022/07/27 01:40:21;;;;;;;14.15;9.77;;;;;;;;;;5032668;28;20044;-75
2022/07/27 01:42:47;;;;;;;17.92;15.98;;;;;;;;;;5035657;28;20108;-77
2022/07/27 01:45:13;;;;;;;21.77;18.60;;;;;;;;;;5035449;28;20013;-75
2022/07/27 01:47:39;;;;;;;11.18;9.43;;;;;;;;;;5035394;28;20024;-77
2022/07/27 01:50:05;;;;;;;15.13;8.88;;;;;;;;;;5035024;28;20140;-77
2022/07/27 01:52:31;;;;;;;12.40;9.90;;;;;;;;;;5035093;28;20022;-76
2022/07/27 01:54:57;;;;;;;18.00;13.88;;;;;;;;;;5033752;28;20052;-75
2022/07/27 01:57:24;;;;;;;13.02;9.32;;;;;;;;;;5035062;28;20147;-75
2022/07/27 01:59:50;;;;;;;14.23;9.98;;;;;;;;;;5035010;28;20018;-76
2022/07/27 02:02:16;;;;;;;13.73;10.63;;;;;;;;;;5035263;28;20013;-75
2022/07/27 02:04:42;;;;;;;10.55;9.10;;;;;;;;;;5036346;28;20022;-76
2022/07/27 02:07:08;;;;;;;13.82;8.20;;;;;;;;;;5035351;28;20083;-75
2022/07/27 02:09:34;;;;;;;13.73;9.10;;;;;;;;;;5036529;28;20054;-75
2022/07/27 02:14:44;;;;;;;17.02;10.05;;;;;;;;;;5025926;28;20147;-75
2022/07/27 02:17:10;;;;;;;12.30;9.68;;;;;;;;;;5032441;28;20061;-76
2022/07/27 02:19:36;;;;;;;10.57;9.50;;;;;;;;;;5035299;28;20075;-76
2022/07/27 02:22:03;;;;;;;16.35;9.98;;;;;;;;;;5019473;28;20459;-75
2022/07/27 02:24:29;;;;;;;13.38;10.00;;;;;;;;;;5033052;28;20155;-75
2022/07/27 02:26:55;;;;;;;14.73;9.10;;;;;;;;;;5033445;28;20048;-77
2022/07/27 02:29:21;;;;;;;12.23;9.20;;;;;;;;;;5034519;28;20064;-75
2022/07/27 02:31:47;;;;;;;17.23;10.77;;;;;;;;;;5034467;28;20028;-76
2022/07/27 02:34:13;;;;;;;15.23;9.52;;;;;;;;;;5032857;28;20385;-76
2022/07/27 02:36:39;;;;;;;17.75;10.35;;;;;;;;;;5034123;28;20018;-76
2022/07/27 02:39:05;;;;;;;16.83;9.77;;;;;;;;;;5033845;28;20041;-76
2022/07/27 02:41:31;;;;;;;16.48;9.25;;;;;;;;;;5034386;28;20481;-75
2022/07/27 02:43:57;;;;;;;17.45;13.82;;;;;;;;;;5034315;28;20037;-77
2022/07/27 02:46:23;;;;;;;21.98;17.02;;;;;;;;;;5034088;28;20017;-76
2022/07/27 02:48:49;;;;;;;19.05;11.80;;;;;;;;;;5034249;28;20022;-75
2022/07/27 02:51:15;;;;;;;11.93;9.13;;;;;;;;;;5032152;28;20033;-76
2022/07/27 02:53:41;;;;;;;15.75;10.63;;;;;;;;;;5032902;28;20092;-75
2022/07/27 02:56:07;;;;;;;15.60;9.98;;;;;;;;;;5034092;28;20108;-76
2022/07/27 02:58:34;;;;;;;14.13;9.82;;;;;;;;;;5033601;28;20041;-75
2022/07/27 03:01:00;;;;;;;16.80;10.68;;;;;;;;;;5033933;28;20100;-77
2022/07/27 03:03:27;;;;;;;12.35;9.25;;;;;;;;;;5033720;28;20026;-75
2022/07/27 03:05:53;;;;;;;16.23;10.50;;;;;;;;;;5034682;28;20147;-75
2022/07/27 03:08:19;;;;;;;16.33;12.38;;;;;;;;;;5033048;28;20057;-75
2022/07/27 03:10:45;;;;;;;11.23;10.13;;;;;;;;;;5033582;28;20025;-76
2022/07/27 03:13:11;;;;;;;15.77;11.13;;;;;;;;;;5035261;28;20087;-77
2022/07/27 03:15:37;;;;;;;11.65;9.45;;;;;;;;;;5035849;28;20045;-76
2022/07/27 03:18:03;;;;;;;14.05;9.82;;;;;;;;;;5035835;28;20041;-76
2022/07/27 03:20:29;;;;;;;17.02;10.20;;;;;;;;;;5033513;28;20071;-76
2022/07/27 03:22:55;;;;;;;9.90;8.20;;;;;;;;;;5033519;28;20018;-76
2022/07/27 03:25:21;;;;;;;18.52;10.18;;;;;;;;;;5033240;28;20025;-76
2022/07/27 03:27:47;;;;;;;19.08;11.05;;;;;;;;;;5033519;28;20026;-76
2022/07/27 03:30:13;;;;;;;12.25;9.95;;;;;;;;;;5032997;28;20018;-75
2022/07/27 03:32:39;;;;;;;14.32;9.98;;;;;;;;;;5033161;28;20018;-75
2022/07/27 03:35:06;;;;;;;17.27;12.40;;;;;;;;;;5033428;28;20455;-76
2022/07/27 03:37:32;;;;;;;12.77;10.68;;;;;;;;;;5033085;28;20464;-76
2022/07/27 03:39:58;;;;;;;15.13;9.57;;;;;;;;;;5032831;28;20017;-75
2022/07/27 03:42:24;;;;;;;21.05;11.13;;;;;;;;;;5033010;28;20100;-76
2022/07/27 03:44:50;;;;;;;18.13;9.98;;;;;;;;;;5032663;28;20068;-77
2022/07/27 03:47:17;;;;;;;14.98;11.13;;;;;;;;;;5033044;28;20026;-76
2022/07/27 03:49:43;;;;;;;17.77;11.43;;;;;;;;;;5032867;28;20045;-76
2022/07/27 03:52:09;;;;;;;14.38;10.25;;;;;;;;;;5033047;28;20021;-76
2022/07/27 03:54:35;;;;;;;16.05;11.55;;;;;;;;;;5033223;28;20022;-75
2022/07/27 03:57:01;;;;;;;17.02;10.77;;;;;;;;;;5031417;28;20017;-75
2022/07/27 03:59:27;;;;;;;13.25;11.68;;;;;;;;;;5032749;28;20021;-75
2022/07/27 04:01:54;;;;;;;18.08;11.52;;;;;;;;;;5030691;28;20489;-76
2022/07/27 04:04:20;;;;;;;16.65;11.48;;;;;;;;;;5032879;28;20073;-77
2022/07/27 04:06:46;;;;;;;17.80;12.25;;;;;;;;;;5032799;28;20101;-76
2022/07/27 04:09:13;;;;;;;19.10;11.57;;;;;;;;;;5032587;28;20037;-78
2022/07/27 04:11:39;;;;;;;30.60;13.98;;;;;;;;;;5031231;28;20060;-79
2022/07/27 04:14:05;;;;;;;17.08;12.60;;;;;;;;;;5031236;28;20235;-78
2022/07/27 04:16:31;;;;;;;13.38;11.45;;;;;;;;;;5032487;28;20022;-77
2022/07/27 04:18:57;;;;;;;17.35;13.70;;;;;;;;;;5032092;28;20104;-79
2022/07/27 04:21:23;;;;;;;18.63;10.20;;;;;;;;;;5032320;28;20520;-76
2022/07/27 04:23:49;;;;;;;12.38;11.07;;;;;;;;;;5033294;28;20473;-77
2022/07/27 04:26:15;;;;;;;21.88;13.95;;;;;;;;;;5033081;28;20460;-79
2022/07/27 04:28:41;;;;;;;14.48;11.82;;;;;;;;;;5031755;28;20492;-78
2022/07/27 04:31:07;;;;;;;14.88;12.57;;;;;;;;;;5033042;28;20022;-76
2022/07/27 04:33:33;;;;;;;21.70;14.50;;;;;;;;;;5032109;28;20024;-75
2022/07/27 04:35:59;;;;;;;20.88;12.98;;;;;;;;;;5031904;28;20101;-79
2022/07/27 04:38:25;;;;;;;16.52;12.73;;;;;;;;;;5032132;28;20397;-78
2022/07/27 04:40:51;;;;;;;19.42;12.95;;;;;;;;;;5031785;28;20541;-76
2022/07/27 04:43:17;;;;;;;15.43;11.43;;;;;;;;;;5031681;28;20096;-75
2022/07/27 04:45:43;;;;;;;20.58;11.25;;;;;;;;;;5031841;28;20025;-76
2022/07/27 04:48:09;;;;;;;15.95;11.95;;;;;;;;;;5030238;28;20021;-76
2022/07/27 04:50:39;;;;;;;14.23;11.93;;;;;;;;;;5031531;28;20057;-77
2022/07/27 04:53:05;;;;;;;17.30;12.88;;;;;;;;;;5016313;28;20026;-77
2022/07/27 04:55:31;;;;;;;16.70;12.38;;;;;;;;;;5031789;28;20469;-76
2022/07/27 04:57:57;;;;;;;18.33;11.98;;;;;;;;;;5031754;28;20539;-75
2022/07/27 05:00:24;;;;;;;16.50;12.02;;;;;;;;;;5031110;28;20075;-75
2022/07/27 05:02:50;;;;;;;17.13;13.13;;;;;;;;;;5031425;28;20035;-75
2022/07/27 05:05:16;;;;;;;19.75;13.18;;;;;;;;;;5031372;28;20219;-78
2022/07/27 05:07:42;;;;;;;18.85;12.75;;;;;;;;;;5030276;28;20026;-76
2022/07/27 05:10:08;;;;;;;17.92;14.07;;;;;;;;;;5031667;28;20160;-75
2022/07/27 05:12:34;;;;;;;21.95;13.75;;;;;;;;;;5027992;28;20030;-76
2022/07/27 05:15:00;;;;;;;25.80;15.65;;;;;;;;;;5031262;28;20477;-75
2022/07/27 05:17:26;;;;;;;21.15;15.70;;;;;;;;;;5030958;28;20038;-78
2022/07/27 05:19:52;;;;;;;23.88;15.57;;;;;;;;;;5030992;28;20356;-75
2022/07/27 05:22:18;;;;;;;20.52;14.60;;;;;;;;;;5031060;28;20100;-75
2022/07/27 05:24:44;;;;;;;25.20;16.48;;;;;;;;;;5031035;28;20014;-76
2022/07/27 05:27:11;;;;;;;26.05;19.55;;;;;;;;;;5030143;28;20033;-76
2022/07/27 05:29:37;;;;;;;21.10;15.10;;;;;;;;;;5031058;28;20029;-76
2022/07/27 05:32:03;;;;;;;27.00;20.83;;;;;;;;;;5031375;28;20028;-75
2022/07/27 05:34:30;;;;;;;13.73;12.32;;;;;;;;;;5032666;28;20064;-76
2022/07/27 05:36:56;;;;;;;17.17;13.65;;;;;;;;;;5030685;28;20013;-77
2022/07/27 05:39:22;;;;;;;18.65;12.80;;;;;;;;;;5030944;28;20472;-77
2022/07/27 05:41:48;;;;;;;17.95;13.73;;;;;;;;;;5030776;28;20439;-76
2022/07/27 05:44:14;;;;;;;14.43;12.02;;;;;;;;;;5029789;28;20388;-76
2022/07/27 05:46:40;;;;;;;14.00;12.48;;;;;;;;;;5030673;28;20075;-75
2022/07/27 05:49:06;;;;;;;12.25;10.98;;;;;;;;;;5030839;28;20097;-75
2022/07/27 05:51:32;;;;;;;14.25;11.98;;;;;;;;;;5030613;28;20084;-75
2022/07/27 05:53:59;;;;;;;17.95;13.00;;;;;;;;;;5031974;28;20022;-75
2022/07/27 05:56:26;;;;;;;18.27;13.25;;;;;;;;;;5023475;28;20017;-76
2022/07/27 05:58:52;;;;;;;16.42;13.57;;;;;;;;;;5031092;28;20476;-76
2022/07/27 06:01:18;;;;;;;27.35;12.88;;;;;;;;;;5031341;28;20021;-76
2022/07/27 06:03:44;;;;;;;17.25;12.30;;;;;;;;;;5031499;28;20025;-76
2022/07/27 06:08:55;;;;;;;24.38;16.15;;;;;;;;;;5020047;28;20458;-76
2022/07/27 06:11:21;;;;;;;19.77;14.98;;;;;;;;;;5030959;28;20492;-75
2022/07/27 06:13:49;;;;;;;16.50;14.80;;;;;;;;;;5017134;28;20022;-76
2022/07/27 06:16:15;;;;;;;16.98;13.38;;;;;;;;;;5030838;28;20017;-75
2022/07/27 06:18:41;;;;;;;18.45;14.07;;;;;;;;;;5030661;28;20036;-76
2022/07/27 06:21:09;;;;;;;17.23;14.82;;;;;;;;;;5030877;28;20079;-77
2022/07/27 06:23:35;;;;;;;20.83;17.70;;;;;;;;;;5030557;28;20035;-76
2022/07/27 06:26:01;;;;;;;22.83;20.00;;;;;;;;;;5034038;28;20017;-76
2022/07/27 06:28:27;;;;;;;24.38;21.88;;;;;;;;;;5034206;28;20543;-77
2022/07/27 06:30:53;;;;;;;21.10;18.90;;;;;;;;;;5034441;28;20485;-75
2022/07/27 06:33:30;;;;;;;27.15;20.73;;;;;;;;;;5034782;28;20504;-77
2022/07/27 06:35:59;;;;;;;33.30;25.75;;;;;;;;;;5019675;28;20039;-77
2022/07/27 06:38:25;;;;;;;24.60;21.83;;;;;;;;;;5021282;28;20121;-76
2022/07/27 06:40:51;;;;;;;30.92;27.65;;;;;;;;;;5064799;28;20063;-75
2022/07/27 06:43:21;;;;;;;28.98;24.58;;;;;;;;;;5033822;28;20396;-75
2022/07/27 06:45:48;;;;;;;34.50;29.90;;;;;;;;;;5036367;28;20096;-75
2022/07/27 06:48:14;;;;;;;30.98;23.67;;;;;;;;;;5033507;28;20026;-74
2022/07/27 06:50:40;;;;;;;29.70;26.50;;;;;;;;;;5033931;28;20030;-76
2022/07/27 06:53:06;;;;;;;30.50;27.13;;;;;;;;;;5033121;28;20022;-75
2022/07/27 06:55:33;;;;;;;31.77;28.23;;;;;;;;;;5033653;28;20018;-75
2022/07/27 06:57:59;;;;;;;28.48;25.45;;;;;;;;;;5020691;28;20037;-76
2022/07/27 07:00:25;;;;;;;35.15;30.55;;;;;;;;;;5032013;28;20477;-75
2022/07/27 07:02:52;;;;;;;42.80;37.95;;;;;;;;;;5033722;28;20025;-75
2022/07/27 07:05:18;;;;;;;25.02;22.23;;;;;;;;;;5033114;28;20499;-74
2022/07/27 07:07:44;;;;;;;30.00;26.83;;;;;;;;;;5033892;28;20084;-77
2022/07/27 07:10:10;;;;;;;29.70;26.50;;;;;;;;;;5034491;28;20377;-75
2022/07/27 07:12:36;;;;;;;25.88;22.52;;;;;;;;;;5034164;28;20113;-75
2022/07/27 07:15:02;;;;;;;29.15;26.05;;;;;;;;;;5035087;28;20036;-75
2022/07/27 07:17:28;;;;;;;29.98;26.75;;;;;;;;;;5020357;28;20033;-74
2022/07/27 07:19:54;;;;;;;32.83;29.48;;;;;;;;;;5034355;28;20045;-75
2022/07/27 07:22:20;;;;;;;33.03;29.67;;;;;;;;;;5032806;28;20022;-75
2022/07/27 07:24:46;;;;;;;26.73;23.77;;;;;;;;;;5031799;28;20063;-74
2022/07/27 07:27:12;;;;;;;25.40;22.73;;;;;;;;;;5032935;28;20018;-74
2022/07/27 07:29:38;;;;;;;26.58;22.70;;;;;;;;;;5031907;28;20392;-74
2022/07/27 07:32:05;;;;;;;24.38;22.10;;;;;;;;;;5032955;28;20034;-75
2022/07/27 07:34:31;;;;;;;24.20;21.80;;;;;;;;;;5032899;28;20025;-75
2022/07/27 07:36:57;;;;;;;25.67;23.10;;;;;;;;;;5032127;28;20029;-74
2022/07/27 07:39:23;;;;;;;26.67;23.73;;;;;;;;;;5031350;28;20021;-76
2022/07/27 07:41:49;;;;;;;38.97;35.08;;;;;;;;;;5032914;28;20459;-74
2022/07/27 07:44:15;;;;;;;27.85;25.05;;;;;;;;;;5032686;28;20036;-74
2022/07/27 07:46:41;;;;;;;29.52;26.63;;;;;;;;;;5032990;28;20021;-74
2022/07/27 07:49:09;;;;;;;26.02;23.30;;;;;;;;;;5032938;28;20033;-75
2022/07/27 07:51:35;;;;;;;23.13;20.70;;;;;;;;;;5031100;28;20056;-75
2022/07/27 07:54:01;;;;;;;24.65;22.08;;;;;;;;;;5031243;28;20029;-74
2022/07/27 07:56:28;;;;;;;27.08;24.17;;;;;;;;;;5035254;28;20017;-74
2022/07/27 07:58:54;;;;;;;32.40;29.13;;;;;;;;;;5032442;28;20026;-74
2022/07/27 08:01:20;;;;;;;32.30;28.05;;;;;;;;;;5031297;28;20116;-75
2022/07/27 08:03:46;;;;;;;28.45;25.65;;;;;;;;;;5032441;28;20025;-75
2022/07/27 08:06:12;;;;;;;25.10;21.60;;;;;;;;;;5032225;28;20542;-77
2022/07/27 08:08:39;;;;;;;29.77;26.90;;;;;;;;;;5017959;28;20125;-75
2022/07/27 08:11:05;;;;;;;30.10;27.10;;;;;;;;;;5032574;28;20052;-75
2022/07/27 08:13:31;;;;;;;30.50;27.17;;;;;;;;;;5032637;28;20017;-74
2022/07/27 08:15:57;;;;;;;25.20;22.77;;;;;;;;;;5030672;28;20481;-74
2022/07/27 08:18:23;;;;;;;28.80;26.00;;;;;;;;;;5031548;28;20041;-75
2022/07/27 08:20:49;;;;;;;29.27;26.52;;;;;;;;;;5032105;28;20167;-75
2022/07/27 08:23:15;;;;;;;28.70;25.63;;;;;;;;;;5032326;28;20048;-74
2022/07/27 08:25:41;;;;;;;24.63;22.25;;;;;;;;;;5032088;28;20067;-74
2022/07/27 08:28:07;;;;;;;21.52;19.40;;;;;;;;;;5031920;28;20107;-74
2022/07/27 08:30:34;;;;;;;22.65;20.55;;;;;;;;;;5032232;28;20477;-74
2022/07/27 08:33:01;;;;;;;27.00;24.25;;;;;;;;;;5030786;28;20030;-74
2022/07/27 08:35:28;;;;;;;22.67;20.40;;;;;;;;;;5031825;28;20036;-74
2022/07/27 08:37:54;;;;;;;23.15;20.65;;;;;;;;;;5031233;28;20068;-74
2022/07/27 08:40:20;;;;;;;22.23;19.90;;;;;;;;;;5031213;28;20116;-75
2022/07/27 08:42:46;;;;;;;25.23;22.08;;;;;;;;;;5031609;28;20061;-75
2022/07/27 08:45:14;;;;;;;24.90;22.50;;;;;;;;;;5032134;28;20022;-73
2022/07/27 08:47:40;;;;;;;22.70;20.33;;;;;;;;;;5030917;28;20021;-77
2022/07/27 08:50:22;;;;;;;23.05;20.77;;;;;;;;;;5031665;28;20021;-75
2022/07/27 08:53:04;;;;;;;23.33;20.67;;;;;;;;;;5031808;28;20108;-78
2022/07/27 08:55:40;;;;;;;24.67;22.23;;;;;;;;;;5031059;28;20021;-76
2022/07/27 08:58:10;;;;;;;29.70;25.70;;;;;;;;;;5028656;28;20467;-75
2022/07/27 09:00:38;;;;;;;20.42;18.42;;;;;;;;;;5029526;28;20100;-75
2022/07/27 09:03:04;;;;;;;30.13;27.20;;;;;;;;;;5028664;28;20017;-75
2022/07/27 09:05:30;;;;;;;37.97;34.08;;;;;;;;;;5030901;28;20072;-75
2022/07/27 09:08:20;;;;;;;29.75;26.38;;;;;;;;;;5032064;28;20132;-77
2022/07/27 09:10:46;;;;;;;23.08;20.73;;;;;;;;;;5030631;28;20051;-78
2022/07/27 09:13:17;;;;;;;23.00;20.38;;;;;;;;;;5030352;28;20071;-77
2022/07/27 09:15:48;;;;;;;19.23;17.23;;;;;;;;;;5027950;28;20036;-74
2022/07/27 09:18:19;;;;;;;34.60;31.10;;;;;;;;;;5029163;28;20393;-75
2022/07/27 09:20:45;;;;;;;24.20;21.00;;;;;;;;;;5028540;28;20097;-76
2022/07/27 09:23:11;;;;;;;34.75;31.30;;;;;;;;;;5029168;28;20014;-77
2022/07/27 09:25:38;;;;;;;41.08;36.80;;;;;;;;;;5030358;28;20017;-78
2022/07/27 09:28:07;;;;;;;20.67;18.70;;;;;;;;;;5031009;28;20018;-77
2022/07/27 09:30:33;;;;;;;20.27;18.25;;;;;;;;;;5030313;28;20104;-76
2022/07/27 09:33:01;;;;;;;30.42;27.40;;;;;;;;;;5030387;28;20528;-74
2022/07/27 09:35:29;;;;;;;51.25;44.35;;;;;;;;;;5030337;28;20026;-78
2022/07/27 09:38:16;;;;;;;20.88;17.42;;;;;;;;;;5029148;28;20435;-77
2022/07/27 09:40:42;;;;;;;20.13;18.02;;;;;;;;;;5027868;28;20885;-77
2022/07/27 09:43:09;;;;;;;20.08;17.95;;;;;;;;;;5030479;28;20064;-78
2022/07/27 09:45:37;;;;;;;24.63;21.98;;;;;;;;;;5030308;28;20520;-77
2022/07/27 09:48:09;;;;;;;26.38;23.67;;;;;;;;;;5030526;28;20083;-77
2022/07/27 09:50:36;;;;;;;41.05;36.70;;;;;;;;;;5034445;28;20025;-76
2022/07/27 09:53:12;;;;;;;34.60;29.75;;;;;;;;;;5033919;28;20472;-76
2022/07/27 09:55:38;;;;;;;23.50;18.65;;;742.60;1152.00;;;;;;5033149;28;20112;-75
2022/07/27 09:58:03;;;;;;;20.85;18.75;;;742.50;1177.60;;;;;;5031026;28;20038;-74
2022/07/27 10:00:29;;;;;;;22.45;20.30;;;;;;;;;;5033392;28;20037;-77
2022/07/27 10:02:56;;;;;;;27.13;24.38;;;;;;;;;;5034779;28;20029;-75
2022/07/27 10:05:22;;;;;;;39.05;35.13;;;;;;;;;;5034466;28;20048;-77
2022/07/27 10:07:48;;;;;;;24.88;22.40;;;;;;;;;;5023879;28;20477;-76
2022/07/27 10:10:14;;;;;;;17.35;15.55;;;;;;;;;;5029220;28;20049;-77
2022/07/27 10:12:44;;;;;;;16.13;14.50;;;;;;;;;;5033484;28;20048;-79
2022/07/27 10:15:13;;;;;;;17.17;15.40;;;;;;;;;;5034207;28;20033;-78
2022/07/27 10:17:41;;;;;;;16.83;15.20;;;;;;;;;;5037760;28;20036;-76
2022/07/27 10:20:08;;;;;;;16.25;13.45;;;;;;;;;;5034304;28;20018;-76
2022/07/27 10:22:53;;;;;;;18.85;16.90;;;;;;;;;;5032717;28;20052;-77
2022/07/27 10:25:20;;;;;;;22.83;19.38;;;;;;;;;;5034014;28;20026;-78
2022/07/27 10:27:48;;;;;;;22.15;19.67;;;;;;;;;;5033169;28;20013;-76
2022/07/27 10:30:18;;;;;;;17.60;14.50;;;;;;;;;;5034574;28;20018;-78
2022/07/27 10:32:45;;;;;;;13.18;11.77;;;;;;;;;;5018827;28;20018;-78
2022/07/27 10:35:30;;;;;;;15.98;14.45;;;;;;;;;;5034354;28;20112;-78
2022/07/27 10:38:17;;;;;;;15.57;14.07;;;;;;;;;;5034090;28;20029;-78
2022/07/27 10:40:43;;;;;;;15.57;14.05;;;;;;;;;;5032968;28;20453;-78
2022/07/27 10:43:10;;;;;;;15.32;13.85;;;;;;;;;;5033510;28;20018;-76
2022/07/27 10:45:43;;;;;;;15.63;12.85;;;;;;;;;;5033421;28;20017;-76
2022/07/27 10:48:29;;;;;;;21.85;19.65;;;;;;;;;;5034012;28;20017;-79
2022/07/27 10:50:55;;;;;;;14.77;11.73;;;;;;;;;;5032598;28;20018;-78
2022/07/27 10:53:31;;;;;;;13.77;12.02;;;;;;;;;;5032918;28;20057;-77
2022/07/27 10:55:57;;;;;;;14.93;12.43;;;;;;;;;;5032054;28;20441;-78
2022/07/27 10:58:27;;;;;;;24.60;21.95;;;;;;;;;;5033050;28;20091;-77
2022/07/27 11:00:53;;;;;;;23.25;20.95;;;;;;;;;;5033214;28;20491;-76
2022/07/27 11:03:31;;;;;;;23.30;20.90;;;;;;;;;;5033422;28;20022;-77
2022/07/27 11:06:06;;;;;;;15.45;13.15;;;;;;;;;;5033483;28;20014;-78
2022/07/27 11:08:34;;;;;;;22.73;20.30;;;;;;;;;;5033133;28;20065;-77
2022/07/27 11:11:01;;;;;;;28.27;25.33;;;;;;;;;;5032303;28;20029;-78
2022/07/27 11:13:28;;;;;;;28.63;25.35;;;;;;;;;;5032289;28;20024;-79
2022/07/27 11:15:54;;;;;;;44.10;39.60;;;;;;;;;;5032491;28;20053;-78
2022/07/27 11:18:27;;;;;;;94.10;84.50;;;;;;;;;;5031708;28;20037;-77
2022/07/27 11:21:11;;;;;;;20.27;18.15;;;;;;;;;;5031589;28;20472;-78
2022/07/27 11:23:37;;;;;;;13.68;12.27;;;;;;;;;;5032100;28;20022;-79
2022/07/27 11:26:04;;;;;;;19.63;17.48;;;;;;;;;;5033179;28;20018;-75
2022/07/27 11:28:31;;;;;;;26.85;24.05;;;;;;;;;;5035407;28;20365;-76
2022/07/27 11:30:57;;;;;;;15.50;13.15;;;;;;;;;;5031344;28;20394;-75
2022/07/27 11:33:23;;;;;;;17.17;13.20;;;;;;;;;;5033301;28;20026;-76
2022/07/27 11:35:57;;;;;;;17.58;14.77;;;;;;;;;;5031742;28;20021;-76
2022/07/27 11:38:23;;;;;;;15.35;13.68;;;;;;;;;;5032453;28;20037;-75
2022/07/27 11:40:50;;;;;;;15.38;13.88;;;;;;;;;;5032369;28;20473;-76
2022/07/27 11:43:36;;;;;;;20.48;13.93;;;;;;;;;;5032528;28;20022;-76
2022/07/27 11:46:15;;;;;;;15.23;13.50;;;;;;;;;;5032745;28;20029;-76
2022/07/27 11:48:51;;;;;;;16.88;12.88;;;;;;;;;;5031000;28;20461;-76
2022/07/27 11:51:18;;;;;;;14.98;13.48;;;;;;;;;;5030961;28;20492;-77
2022/07/27 11:53:44;;;;;;;18.80;14.55;;;;;;;;;;5032147;28;20025;-76
2022/07/27 11:56:10;;;;;;;15.23;13.73;;;;;;;;;;5032161;28;20014;-76
2022/07/27 11:58:55;;;;;;;15.15;13.68;;;;;;;;;;5032386;28;20040;-78
2022/07/27 12:01:32;;;;;;;20.52;14.32;;;;;;;;;;5031480;28;20038;-77
2022/07/27 12:04:04;;;;;;;15.25;13.60;;;;;;;;;;5032346;28;20035;-77
2022/07/27 12:06:33;;;;;;;15.00;13.35;;;;;;;;;;5028530;28;20029;-77
2022/07/27 12:09:04;;;;;;;16.60;14.90;;;;;;;;;;5032365;28;20034;-77
2022/07/27 12:11:44;;;;;;;17.45;15.73;;;;;;;;;;5030972;28;20025;-77
2022/07/27 12:14:11;;;;;;;15.57;14.02;;;;;;;;;;5031529;28;20593;-76
2022/07/27 12:16:37;;;;;;;16.90;15.10;;;;;;;;;;5031492;28;20021;-74
2022/07/27 12:19:03;;;;;;;18.75;14.88;;;;;;;;;;5030825;28;20060;-75
2022/07/27 12:21:29;;;;;;;17.63;15.75;;;;;;;;;;5031914;28;20021;-77
2022/07/27 12:23:56;;;;;;;17.48;15.75;;;;;;;;;;5017753;28;20022;-78
2022/07/27 12:26:24;;;;;;;15.35;13.85;;;;;;;;;;5031516;28;20159;-77
2022/07/27 12:29:10;;;;;;;16.67;14.98;;;;;;;;;;5031047;28;20030;-75
2022/07/27 12:31:37;;;;;;;17.02;15.07;;;;;;;;;;5012305;28;20026;-76
2022/07/27 12:34:06;;;;;;;14.80;13.07;;;;;;;;;;5026898;28;20060;-75
2022/07/27 12:36:32;;;;;;;16.20;14.55;;;;;;;;;;5030791;28;20147;-75
2022/07/27 12:38:58;;;;;;;16.27;14.57;;;;;;;;;;5032135;28;20065;-75
2022/07/27 12:41:26;;;;;;;16.13;13.23;;;;;;;;;;5030182;28;20022;-77
2022/07/27 12:44:09;;;;;;;14.13;12.70;;;;;;;;;;5025554;28;20489;-75
2022/07/27 12:46:51;;;;;;;14.50;13.05;;;;;;;;;;5014959;28;20365;-75
2022/07/27 12:49:17;;;;;;;18.23;14.57;;;;;;;;;;5028796;28;20099;-75
2022/07/27 12:51:43;;;;;;;22.13;14.82;;;;;;;;;;5029768;28;20029;-76
2022/07/27 12:54:09;;;;;;;16.20;14.15;;;;;;;;;;5030491;28;20017;-75
2022/07/27 12:56:35;;;;;;;19.80;17.73;;;;;;;;;;5031578;28;20028;-75
2022/07/27 12:59:02;;;;;;;22.17;19.85;;;;;;;;;;5031713;28;20155;-74
2022/07/27 13:01:28;;;;;;;14.38;13.00;;;;;;;;;;5031983;28;20101;-75
2022/07/27 13:03:54;;;;;;;14.80;13.30;;;;;;;;;;5032718;28;20018;-75
2022/07/27 13:06:21;;;;;;;18.83;15.93;;;;;;;;;;5030929;28;20031;-74
2022/07/27 13:08:47;;;;;;;36.42;33.03;;;;;;;;;;5030930;28;20046;-74
2022/07/27 13:11:13;;;;;;;21.38;14.82;;;;;;;;;;5032903;28;20032;-75
2022/07/27 13:13:39;;;;;;;13.95;12.50;;;;;;;;;;5035542;28;20029;-75
2022/07/27 13:16:05;;;;;;;26.80;24.35;;;;;;;;;;5033605;28;20040;-77
2022/07/27 13:18:31;;;;;;;21.60;15.27;;;;;;;;;;5030845;28;20060;-76
2022/07/27 13:20:57;;;;;;;24.60;14.73;;;;;;;;;;5031413;28;20014;-75
2022/07/27 13:23:23;;;;;;;31.88;28.67;;;;;;;;;;5018974;28;20025;-77
2022/07/27 13:25:50;;;;;;;14.85;12.95;;;;;;;;;;5056975;28;20022;-75
2022/07/27 13:28:16;;;;;;;16.60;15.00;;;;;;;;;;5022616;28;20521;-76
2022/07/27 13:30:42;;;;;;;24.27;16.02;;;;;;;;;;5029881;28;20108;-76
2022/07/27 13:33:08;;;;;;;22.52;13.65;;;;;;;;;;5031000;28;20048;-74
2022/07/27 13:35:35;;;;;;;15.95;13.45;;;;;;;;;;5030541;28;20037;-76
2022/07/27 13:38:01;;;;;;;18.02;16.23;;;;;;;;;;5029743;28;20465;-75
2022/07/27 13:40:27;;;;;;;20.83;15.85;;;;;;;;;;5031254;28;20033;-75
2022/07/27 13:42:53;;;;;;;18.30;14.27;;;;;;;;;;5029400;28;20022;-76
2022/07/27 13:45:19;;;;;;;13.85;12.48;;;;;;;;;;5020113;28;20068;-75
2022/07/27 13:47:46;;;;;;;14.85;11.15;;;;;;;;;;5025074;28;20071;-74
2022/07/27 13:50:12;;;;;;;10.40;9.38;;;;;;;;;;5031747;28;20144;-75
2022/07/27 13:52:38;;;;;;;11.95;10.13;;;;;;;;;;5034219;28;20124;-74
2022/07/27 13:55:05;;;;;;;10.38;9.32;;;;;;;;;;5016911;28;20021;-75
2022/07/27 13:57:31;;;;;;;19.63;9.70;;;;;;;;;;5030915;28;20049;-75
2022/07/27 13:59:58;;;;;;;10.27;9.20;;;;;;;;;;5028504;28;20025;-74
2022/07/27 14:02:24;;;;;;;13.00;9.98;;;;;;;;;;5029548;28;20049;-74
2022/07/27 14:04:50;;;;;;;10.88;9.65;;;;;;;;;;5029445;28;20026;-79
2022/07/27 14:07:16;;;;;;;12.13;9.77;;;;;;;;;;5030809;28;20089;-74
2022/07/27 14:12:27;;;;;;;11.30;9.32;;;;;;;;;;5031311;28;20037;-74
2022/07/27 14:14:53;;;;;;;11.25;9.27;;;;;;;;;;5031288;28;20022;-75
2022/07/27 14:17:19;;;;;;;12.98;9.68;;;;;;;;;;5030592;28;20112;-75
2022/07/27 14:19:45;;;;;;;10.65;9.18;;;;;;;;;;5031395;28;20033;-76
2022/07/27 14:22:11;;;;;;;14.68;10.00;;;;;;;;;;5030013;28;20041;-74
2022/07/27 14:24:38;;;;;;;14.23;10.18;;;;;;;;;;5030687;28;20024;-76
2022/07/27 14:27:06;;;;;;;12.88;10.00;;;;;;;;;;5029076;28;20018;-76